Guion, Arkansas
Current Conditions -  °F | °C
As of 1:55 AM on Saturday 20 Dec 2014 (Local Time) from KBVX Reporting Station
Overcast Overcast  
Wind Chill: 34°   Ceiling: 4000
Heat Index: 37°   Visibility: 9mi
Dew Point: 30°   Wind: 5mph
Humidity: 75%   Direction: 70°ENE
Pressure: 30.24"   Gusts: NA
Location:  35.93°N, 91.94°W
Report Text: KBVX 200755Z AUTO 07004KT 9SM OVC040 03/M01 A3024 RMK AO1
Loading
Personal Weather Stations






























Interactive Weather Map New forecast layout! Learn more

10-Day Weather Forecast

Advertisements
Track Severe Weather on mobile